sensor_id;sensor_type;location;lat;lon;timestamp;P1;durP1;ratioP1;P2;durP2;ratioP2
19985;SDS011;10154;52.474;10.768;2023-02-15T00:01:06;74.57;;;26.57;;
19985;SDS011;10154;52.474;10.768;2023-02-15T00:03:35;77.30;;;28.17;;
19985;SDS011;10154;52.474;10.768;2023-02-15T00:06:00;82.13;;;27.63;;
19985;SDS011;10154;52.474;10.768;2023-02-15T00:08:26;88.67;;;28.47;;
19985;SDS011;10154;52.474;10.768;2023-02-15T00:10:52;91.00;;;29.40;;
19985;SDS011;10154;52.474;10.768;2023-02-15T00:13:17;103.57;;;29.43;;
19985;SDS011;10154;52.474;10.768;2023-02-15T00:15:42;109.63;;;26.27;;
19985;SDS011;10154;52.474;10.768;2023-02-15T00:18:08;112.20;;;24.97;;
19985;SDS011;10154;52.474;10.768;2023-02-15T00:20:33;108.17;;;24.80;;
19985;SDS011;10154;52.474;10.768;2023-02-15T00:22:58;95.80;;;23.67;;
19985;SDS011;10154;52.474;10.768;2023-02-15T00:25:24;66.13;;;24.40;;
19985;SDS011;10154;52.474;10.768;2023-02-15T00:27:49;90.13;;;23.70;;
19985;SDS011;10154;52.474;10.768;2023-02-15T00:30:15;72.47;;;22.30;;
19985;SDS011;10154;52.474;10.768;2023-02-15T00:32:40;128.87;;;24.23;;
19985;SDS011;10154;52.474;10.768;2023-02-15T00:35:06;70.37;;;24.03;;
19985;SDS011;10154;52.474;10.768;2023-02-15T00:37:32;100.80;;;23.77;;
19985;SDS011;10154;52.474;10.768;2023-02-15T00:39:57;77.33;;;22.13;;
19985;SDS011;10154;52.474;10.768;2023-02-15T00:42:23;86.50;;;23.93;;
19985;SDS011;10154;52.474;10.768;2023-02-15T00:44:48;146.47;;;24.00;;
19985;SDS011;10154;52.474;10.768;2023-02-15T00:47:13;108.50;;;24.63;;
19985;SDS011;10154;52.474;10.768;2023-02-15T00:49:39;63.37;;;22.33;;
19985;SDS011;10154;52.474;10.768;2023-02-15T00:52:04;87.43;;;22.70;;
19985;SDS011;10154;52.474;10.768;2023-02-15T00:54:29;74.00;;;23.37;;
19985;SDS011;10154;52.474;10.768;2023-02-15T00:56:55;61.30;;;22.30;;
19985;SDS011;10154;52.474;10.768;2023-02-15T00:59:20;70.33;;;23.23;;
19985;SDS011;10154;52.474;10.768;2023-02-15T01:01:45;72.10;;;23.27;;
19985;SDS011;10154;52.474;10.768;2023-02-15T01:04:11;68.40;;;22.73;;
19985;SDS011;10154;52.474;10.768;2023-02-15T01:06:36;66.27;;;22.83;;
19985;SDS011;10154;52.474;10.768;2023-02-15T01:09:01;59.40;;;22.10;;
19985;SDS011;10154;52.474;10.768;2023-02-15T01:11:27;61.10;;;22.73;;
19985;SDS011;10154;52.474;10.768;2023-02-15T01:13:56;65.03;;;23.20;;
19985;SDS011;10154;52.474;10.768;2023-02-15T01:16:23;73.73;;;23.47;;
19985;SDS011;10154;52.474;10.768;2023-02-15T01:18:49;85.77;;;24.30;;
19985;SDS011;10154;52.474;10.768;2023-02-15T01:21:16;79.53;;;22.80;;
19985;SDS011;10154;52.474;10.768;2023-02-15T01:23:43;63.80;;;20.77;;
19985;SDS011;10154;52.474;10.768;2023-02-15T01:26:09;66.07;;;20.10;;
19985;SDS011;10154;52.474;10.768;2023-02-15T01:28:35;67.00;;;20.17;;
19985;SDS011;10154;52.474;10.768;2023-02-15T01:31:04;71.07;;;20.47;;
19985;SDS011;10154;52.474;10.768;2023-02-15T01:33:34;71.00;;;19.57;;
19985;SDS011;10154;52.474;10.768;2023-02-15T01:36:00;63.50;;;22.23;;
19985;SDS011;10154;52.474;10.768;2023-02-15T01:38:26;58.30;;;21.13;;
19985;SDS011;10154;52.474;10.768;2023-02-15T01:40:51;46.87;;;19.13;;
19985;SDS011;10154;52.474;10.768;2023-02-15T01:43:17;51.93;;;20.30;;
19985;SDS011;10154;52.474;10.768;2023-02-15T01:45:43;51.80;;;19.60;;
19985;SDS011;10154;52.474;10.768;2023-02-15T01:48:29;52.40;;;20.93;;
19985;SDS011;10154;52.474;10.768;2023-02-15T01:50:55;56.83;;;21.43;;
19985;SDS011;10154;52.474;10.768;2023-02-15T01:53:27;59.60;;;21.03;;
19985;SDS011;10154;52.474;10.768;2023-02-15T01:58:23;54.37;;;21.53;;
19985;SDS011;10154;52.474;10.768;2023-02-15T02:00:50;54.10;;;21.17;;
19985;SDS011;10154;52.474;10.768;2023-02-15T02:03:15;55.73;;;20.23;;
19985;SDS011;10154;52.474;10.768;2023-02-15T02:05:40;45.93;;;19.37;;
19985;SDS011;10154;52.474;10.768;2023-02-15T02:08:06;47.13;;;19.63;;
19985;SDS011;10154;52.474;10.768;2023-02-15T02:10:32;45.47;;;18.77;;
19985;SDS011;10154;52.474;10.768;2023-02-15T02:12:58;47.30;;;20.80;;
19985;SDS011;10154;52.474;10.768;2023-02-15T02:15:30;50.10;;;19.67;;
19985;SDS011;10154;52.474;10.768;2023-02-15T02:18:07;47.93;;;19.77;;
19985;SDS011;10154;52.474;10.768;2023-02-15T02:20:51;51.50;;;18.90;;
19985;SDS011;10154;52.474;10.768;2023-02-15T02:23:35;45.57;;;18.73;;
19985;SDS011;10154;52.474;10.768;2023-02-15T02:34:52;42.50;;;18.13;;
19985;SDS011;10154;52.474;10.768;2023-02-15T02:37:30;43.33;;;18.27;;
19985;SDS011;10154;52.474;10.768;2023-02-15T02:42:52;47.00;;;18.17;;
19985;SDS011;10154;52.474;10.768;2023-02-15T02:45:25;42.60;;;18.10;;
19985;SDS011;10154;52.474;10.768;2023-02-15T02:48:07;42.10;;;17.17;;
19985;SDS011;10154;52.474;10.768;2023-02-15T02:50:38;45.10;;;17.97;;
19985;SDS011;10154;52.474;10.768;2023-02-15T02:53:04;47.67;;;19.67;;
19985;SDS011;10154;52.474;10.768;2023-02-15T02:55:38;51.20;;;19.17;;
19985;SDS011;10154;52.474;10.768;2023-02-15T02:58:19;74.87;;;18.53;;
19985;SDS011;10154;52.474;10.768;2023-02-15T03:00:53;41.73;;;17.20;;
19985;SDS011;10154;52.474;10.768;2023-02-15T03:03:21;42.90;;;17.37;;
19985;SDS011;10154;52.474;10.768;2023-02-15T03:05:52;42.83;;;17.17;;
19985;SDS011;10154;52.474;10.768;2023-02-15T03:08:19;45.27;;;18.73;;
19985;SDS011;10154;52.474;10.768;2023-02-15T03:10:47;45.03;;;18.00;;
19985;SDS011;10154;52.474;10.768;2023-02-15T03:13:13;85.30;;;18.07;;
19985;SDS011;10154;52.474;10.768;2023-02-15T03:15:39;84.27;;;18.27;;
19985;SDS011;10154;52.474;10.768;2023-02-15T03:18:26;79.90;;;18.23;;
19985;SDS011;10154;52.474;10.768;2023-02-15T03:20:54;77.57;;;17.83;;
19985;SDS011;10154;52.474;10.768;2023-02-15T03:23:21;73.70;;;16.83;;
19985;SDS011;10154;52.474;10.768;2023-02-15T03:25:49;60.90;;;15.93;;
19985;SDS011;10154;52.474;10.768;2023-02-15T03:28:21;60.57;;;16.37;;
19985;SDS011;10154;52.474;10.768;2023-02-15T03:30:49;54.47;;;16.47;;
19985;SDS011;10154;52.474;10.768;2023-02-15T03:33:17;56.53;;;16.67;;
19985;SDS011;10154;52.474;10.768;2023-02-15T03:35:52;45.80;;;15.77;;
19985;SDS011;10154;52.474;10.768;2023-02-15T03:38:26;44.80;;;16.13;;
19985;SDS011;10154;52.474;10.768;2023-02-15T03:40:58;52.00;;;15.77;;
19985;SDS011;10154;52.474;10.768;2023-02-15T03:49:26;41.10;;;16.93;;
19985;SDS011;10154;52.474;10.768;2023-02-15T03:51:54;39.83;;;16.73;;
19985;SDS011;10154;52.474;10.768;2023-02-15T03:54:25;47.03;;;17.30;;
19985;SDS011;10154;52.474;10.768;2023-02-15T03:57:26;39.97;;;17.50;;
19985;SDS011;10154;52.474;10.768;2023-02-15T04:03:11;42.07;;;17.47;;
19985;SDS011;10154;52.474;10.768;2023-02-15T04:05:57;43.07;;;17.67;;
19985;SDS011;10154;52.474;10.768;2023-02-15T04:08:23;43.93;;;17.40;;
19985;SDS011;10154;52.474;10.768;2023-02-15T04:11:08;41.40;;;17.27;;
19985;SDS011;10154;52.474;10.768;2023-02-15T04:13:33;46.30;;;18.63;;
19985;SDS011;10154;52.474;10.768;2023-02-15T04:15:59;40.63;;;17.47;;
19985;SDS011;10154;52.474;10.768;2023-02-15T04:21:15;40.73;;;17.23;;
19985;SDS011;10154;52.474;10.768;2023-02-15T04:23:59;38.17;;;16.37;;
19985;SDS011;10154;52.474;10.768;2023-02-15T04:26:43;40.37;;;17.10;;
19985;SDS011;10154;52.474;10.768;2023-02-15T04:29:08;40.47;;;16.27;;
19985;SDS011;10154;52.474;10.768;2023-02-15T04:31:34;38.70;;;15.33;;
19985;SDS011;10154;52.474;10.768;2023-02-15T04:33:59;36.83;;;15.47;;
19985;SDS011;10154;52.474;10.768;2023-02-15T04:36:24;41.87;;;17.07;;
19985;SDS011;10154;52.474;10.768;2023-02-15T04:38:50;41.13;;;16.90;;
19985;SDS011;10154;52.474;10.768;2023-02-15T04:41:15;37.37;;;16.27;;
19985;SDS011;10154;52.474;10.768;2023-02-15T04:43:41;41.07;;;16.17;;
19985;SDS011;10154;52.474;10.768;2023-02-15T04:46:06;39.17;;;16.93;;
19985;SDS011;10154;52.474;10.768;2023-02-15T04:48:32;42.30;;;16.50;;
19985;SDS011;10154;52.474;10.768;2023-02-15T04:50:57;40.40;;;16.07;;
19985;SDS011;10154;52.474;10.768;2023-02-15T04:53:22;39.93;;;16.07;;
19985;SDS011;10154;52.474;10.768;2023-02-15T04:55:47;52.37;;;17.97;;
19985;SDS011;10154;52.474;10.768;2023-02-15T04:58:13;37.70;;;16.20;;
19985;SDS011;10154;52.474;10.768;2023-02-15T05:00:38;41.33;;;16.67;;
19985;SDS011;10154;52.474;10.768;2023-02-15T05:03:04;41.27;;;16.40;;
19985;SDS011;10154;52.474;10.768;2023-02-15T05:05:29;40.63;;;16.93;;
19985;SDS011;10154;52.474;10.768;2023-02-15T05:07:54;42.13;;;17.17;;
19985;SDS011;10154;52.474;10.768;2023-02-15T05:10:20;56.33;;;17.03;;
19985;SDS011;10154;52.474;10.768;2023-02-15T05:12:45;41.20;;;16.83;;
19985;SDS011;10154;52.474;10.768;2023-02-15T05:15:11;39.57;;;16.27;;
19985;SDS011;10154;52.474;10.768;2023-02-15T05:17:37;55.53;;;16.53;;
19985;SDS011;10154;52.474;10.768;2023-02-15T05:20:02;42.37;;;15.03;;
19985;SDS011;10154;52.474;10.768;2023-02-15T05:22:28;51.20;;;15.13;;
19985;SDS011;10154;52.474;10.768;2023-02-15T05:24:53;33.63;;;15.00;;
19985;SDS011;10154;52.474;10.768;2023-02-15T05:27:37;32.53;;;14.60;;
19985;SDS011;10154;52.474;10.768;2023-02-15T05:30:21;36.50;;;14.80;;
19985;SDS011;10154;52.474;10.768;2023-02-15T05:32:47;35.10;;;15.23;;
19985;SDS011;10154;52.474;10.768;2023-02-15T05:35:13;31.23;;;14.60;;
19985;SDS011;10154;52.474;10.768;2023-02-15T05:37:39;31.50;;;14.93;;
19985;SDS011;10154;52.474;10.768;2023-02-15T05:40:05;35.97;;;15.63;;
19985;SDS011;10154;52.474;10.768;2023-02-15T05:42:31;38.43;;;14.90;;
19985;SDS011;10154;52.474;10.768;2023-02-15T05:44:56;38.17;;;15.10;;
19985;SDS011;10154;52.474;10.768;2023-02-15T05:47:21;39.67;;;16.27;;
19985;SDS011;10154;52.474;10.768;2023-02-15T05:49:47;39.47;;;15.67;;
19985;SDS011;10154;52.474;10.768;2023-02-15T05:52:12;36.67;;;15.50;;
19985;SDS011;10154;52.474;10.768;2023-02-15T05:54:38;35.97;;;15.63;;
19985;SDS011;10154;52.474;10.768;2023-02-15T05:57:03;39.10;;;16.33;;
19985;SDS011;10154;52.474;10.768;2023-02-15T05:59:28;40.77;;;15.87;;
19985;SDS011;10154;52.474;10.768;2023-02-15T06:01:54;44.33;;;17.37;;
19985;SDS011;10154;52.474;10.768;2023-02-15T06:04:19;39.03;;;16.57;;
19985;SDS011;10154;52.474;10.768;2023-02-15T06:06:45;40.97;;;17.03;;
19985;SDS011;10154;52.474;10.768;2023-02-15T06:09:11;41.07;;;16.47;;
19985;SDS011;10154;52.474;10.768;2023-02-15T06:11:37;42.83;;;17.03;;
19985;SDS011;10154;52.474;10.768;2023-02-15T06:14:03;43.60;;;17.20;;
19985;SDS011;10154;52.474;10.768;2023-02-15T06:16:28;39.93;;;17.13;;
19985;SDS011;10154;52.474;10.768;2023-02-15T06:18:53;42.43;;;17.13;;
19985;SDS011;10154;52.474;10.768;2023-02-15T06:21:19;44.53;;;16.80;;
19985;SDS011;10154;52.474;10.768;2023-02-15T06:23:44;37.63;;;16.30;;
19985;SDS011;10154;52.474;10.768;2023-02-15T06:26:09;37.30;;;15.53;;
19985;SDS011;10154;52.474;10.768;2023-02-15T06:28:35;34.83;;;15.40;;
19985;SDS011;10154;52.474;10.768;2023-02-15T06:31:02;40.97;;;16.93;;
19985;SDS011;10154;52.474;10.768;2023-02-15T06:33:30;38.70;;;16.63;;
19985;SDS011;10154;52.474;10.768;2023-02-15T06:36:05;39.77;;;16.30;;
19985;SDS011;10154;52.474;10.768;2023-02-15T06:38:31;41.17;;;16.70;;
19985;SDS011;10154;52.474;10.768;2023-02-15T06:40:57;37.57;;;16.03;;
19985;SDS011;10154;52.474;10.768;2023-02-15T06:43:25;37.77;;;16.37;;
19985;SDS011;10154;52.474;10.768;2023-02-15T06:45:50;40.43;;;16.83;;
19985;SDS011;10154;52.474;10.768;2023-02-15T06:48:15;38.53;;;16.07;;
19985;SDS011;10154;52.474;10.768;2023-02-15T06:50:41;46.30;;;17.43;;
19985;SDS011;10154;52.474;10.768;2023-02-15T06:53:06;38.30;;;17.43;;
19985;SDS011;10154;52.474;10.768;2023-02-15T06:55:32;37.70;;;16.07;;
19985;SDS011;10154;52.474;10.768;2023-02-15T06:57:57;40.17;;;16.60;;
19985;SDS011;10154;52.474;10.768;2023-02-15T07:00:25;36.43;;;16.00;;
19985;SDS011;10154;52.474;10.768;2023-02-15T07:02:56;33.47;;;14.73;;
19985;SDS011;10154;52.474;10.768;2023-02-15T07:05:23;38.27;;;15.50;;
19985;SDS011;10154;52.474;10.768;2023-02-15T07:07:49;37.53;;;15.40;;
19985;SDS011;10154;52.474;10.768;2023-02-15T07:10:14;43.33;;;15.67;;
19985;SDS011;10154;52.474;10.768;2023-02-15T07:12:40;37.23;;;15.50;;
19985;SDS011;10154;52.474;10.768;2023-02-15T07:15:10;34.67;;;14.23;;
19985;SDS011;10154;52.474;10.768;2023-02-15T07:17:46;36.77;;;14.43;;
19985;SDS011;10154;52.474;10.768;2023-02-15T07:20:16;32.77;;;14.67;;
19985;SDS011;10154;52.474;10.768;2023-02-15T07:22:43;33.47;;;14.77;;
19985;SDS011;10154;52.474;10.768;2023-02-15T07:25:09;37.37;;;15.37;;
19985;SDS011;10154;52.474;10.768;2023-02-15T07:27:36;35.17;;;13.93;;
19985;SDS011;10154;52.474;10.768;2023-02-15T07:30:02;33.73;;;15.23;;
19985;SDS011;10154;52.474;10.768;2023-02-15T07:32:31;36.57;;;16.10;;
19985;SDS011;10154;52.474;10.768;2023-02-15T07:34:57;37.77;;;16.73;;
19985;SDS011;10154;52.474;10.768;2023-02-15T07:37:23;35.57;;;15.47;;
19985;SDS011;10154;52.474;10.768;2023-02-15T07:39:49;36.73;;;15.83;;
19985;SDS011;10154;52.474;10.768;2023-02-15T07:42:14;32.43;;;15.07;;
19985;SDS011;10154;52.474;10.768;2023-02-15T07:44:39;36.23;;;15.77;;
19985;SDS011;10154;52.474;10.768;2023-02-15T07:47:05;33.37;;;15.13;;
19985;SDS011;10154;52.474;10.768;2023-02-15T07:49:30;35.57;;;15.83;;
19985;SDS011;10154;52.474;10.768;2023-02-15T07:51:56;40.67;;;17.67;;
19985;SDS011;10154;52.474;10.768;2023-02-15T07:54:21;38.40;;;17.03;;
19985;SDS011;10154;52.474;10.768;2023-02-15T07:56:46;37.60;;;16.87;;
19985;SDS011;10154;52.474;10.768;2023-02-15T07:59:12;40.37;;;17.90;;
19985;SDS011;10154;52.474;10.768;2023-02-15T08:01:38;39.73;;;17.63;;
19985;SDS011;10154;52.474;10.768;2023-02-15T08:04:04;41.10;;;17.73;;
19985;SDS011;10154;52.474;10.768;2023-02-15T08:06:31;39.73;;;18.33;;
19985;SDS011;10154;52.474;10.768;2023-02-15T08:08:58;43.33;;;19.87;;
19985;SDS011;10154;52.474;10.768;2023-02-15T08:11:25;44.53;;;20.23;;
19985;SDS011;10154;52.474;10.768;2023-02-15T08:14:00;40.13;;;19.17;;
19985;SDS011;10154;52.474;10.768;2023-02-15T08:16:38;39.93;;;18.80;;
19985;SDS011;10154;52.474;10.768;2023-02-15T08:19:12;42.27;;;19.07;;
19985;SDS011;10154;52.474;10.768;2023-02-15T08:21:46;37.23;;;17.63;;
19985;SDS011;10154;52.474;10.768;2023-02-15T08:24:14;32.70;;;16.67;;
19985;SDS011;10154;52.474;10.768;2023-02-15T08:26:40;36.40;;;17.60;;
19985;SDS011;10154;52.474;10.768;2023-02-15T08:29:06;38.17;;;16.30;;
19985;SDS011;10154;52.474;10.768;2023-02-15T08:31:32;32.70;;;16.17;;
19985;SDS011;10154;52.474;10.768;2023-02-15T08:33:58;38.63;;;17.93;;
19985;SDS011;10154;52.474;10.768;2023-02-15T08:36:25;32.60;;;15.73;;
19985;SDS011;10154;52.474;10.768;2023-02-15T08:38:52;37.97;;;15.03;;
19985;SDS011;10154;52.474;10.768;2023-02-15T08:43:47;30.10;;;15.97;;
19985;SDS011;10154;52.474;10.768;2023-02-15T08:46:15;29.13;;;15.37;;
19985;SDS011;10154;52.474;10.768;2023-02-15T08:48:41;32.47;;;16.00;;
19985;SDS011;10154;52.474;10.768;2023-02-15T08:51:17;30.53;;;16.20;;
19985;SDS011;10154;52.474;10.768;2023-02-15T08:53:45;31.00;;;16.53;;
19985;SDS011;10154;52.474;10.768;2023-02-15T08:56:14;33.00;;;16.37;;
19985;SDS011;10154;52.474;10.768;2023-02-15T08:58:40;32.93;;;16.30;;
19985;SDS011;10154;52.474;10.768;2023-02-15T09:01:19;34.50;;;16.40;;
19985;SDS011;10154;52.474;10.768;2023-02-15T09:03:46;33.33;;;15.80;;
19985;SDS011;10154;52.474;10.768;2023-02-15T09:06:13;30.80;;;14.57;;
19985;SDS011;10154;52.474;10.768;2023-02-15T09:08:39;35.00;;;14.57;;
19985;SDS011;10154;52.474;10.768;2023-02-15T09:11:14;31.70;;;14.73;;
19985;SDS011;10154;52.474;10.768;2023-02-15T09:13:55;26.07;;;13.43;;
19985;SDS011;10154;52.474;10.768;2023-02-15T09:16:21;27.53;;;13.80;;
19985;SDS011;10154;52.474;10.768;2023-02-15T09:18:47;29.83;;;15.73;;
19985;SDS011;10154;52.474;10.768;2023-02-15T09:21:14;29.63;;;15.37;;
19985;SDS011;10154;52.474;10.768;2023-02-15T09:23:44;28.77;;;15.37;;
19985;SDS011;10154;52.474;10.768;2023-02-15T09:26:12;29.73;;;15.57;;
19985;SDS011;10154;52.474;10.768;2023-02-15T09:28:39;29.13;;;16.23;;
19985;SDS011;10154;52.474;10.768;2023-02-15T09:31:05;27.70;;;15.20;;
19985;SDS011;10154;52.474;10.768;2023-02-15T09:33:41;29.97;;;15.47;;
19985;SDS011;10154;52.474;10.768;2023-02-15T09:38:44;30.33;;;16.07;;
19985;SDS011;10154;52.474;10.768;2023-02-15T10:09:11;22.27;;;13.43;;
19985;SDS011;10154;52.474;10.768;2023-02-15T10:34:18;19.90;;;12.80;;
19985;SDS011;10154;52.474;10.768;2023-02-15T10:56:29;20.60;;;13.20;;
19985;SDS011;10154;52.474;10.768;2023-02-15T11:02:12;20.63;;;12.77;;
19985;SDS011;10154;52.474;10.768;2023-02-15T11:04:53;18.90;;;12.33;;
19985;SDS011;10154;52.474;10.768;2023-02-15T11:10:00;20.00;;;12.87;;
19985;SDS011;10154;52.474;10.768;2023-02-15T11:12:36;18.20;;;12.80;;
19985;SDS011;10154;52.474;10.768;2023-02-15T11:15:02;20.70;;;13.57;;
19985;SDS011;10154;52.474;10.768;2023-02-15T11:17:38;19.10;;;12.93;;
19985;SDS011;10154;52.474;10.768;2023-02-15T11:20:09;19.33;;;11.77;;
19985;SDS011;10154;52.474;10.768;2023-02-15T11:22:46;18.07;;;12.07;;
19985;SDS011;10154;52.474;10.768;2023-02-15T11:25:32;18.80;;;12.43;;
19985;SDS011;10154;52.474;10.768;2023-02-15T11:27:59;18.13;;;11.97;;
19985;SDS011;10154;52.474;10.768;2023-02-15T11:30:27;17.97;;;12.07;;
19985;SDS011;10154;52.474;10.768;2023-02-15T11:32:58;17.73;;;12.23;;
19985;SDS011;10154;52.474;10.768;2023-02-15T11:35:34;20.33;;;13.00;;
19985;SDS011;10154;52.474;10.768;2023-02-15T11:40:56;17.43;;;12.27;;
19985;SDS011;10154;52.474;10.768;2023-02-15T11:43:31;20.53;;;12.93;;
19985;SDS011;10154;52.474;10.768;2023-02-15T11:46:00;18.43;;;11.63;;
19985;SDS011;10154;52.474;10.768;2023-02-15T11:48:25;17.13;;;12.10;;
19985;SDS011;10154;52.474;10.768;2023-02-15T11:50:51;18.97;;;11.50;;
19985;SDS011;10154;52.474;10.768;2023-02-15T11:53:18;16.03;;;11.53;;
19985;SDS011;10154;52.474;10.768;2023-02-15T11:55:47;17.50;;;11.47;;
19985;SDS011;10154;52.474;10.768;2023-02-15T11:58:21;16.03;;;11.13;;
19985;SDS011;10154;52.474;10.768;2023-02-15T12:01:21;16.27;;;11.03;;
19985;SDS011;10154;52.474;10.768;2023-02-15T12:03:52;16.70;;;11.35;;
19985;SDS011;10154;52.474;10.768;2023-02-15T12:06:27;16.55;;;11.98;;
19985;SDS011;10154;52.474;10.768;2023-02-15T12:08:59;15.18;;;10.43;;
19985;SDS011;10154;52.474;10.768;2023-02-15T12:11:41;15.33;;;10.53;;
19985;SDS011;10154;52.474;10.768;2023-02-15T12:14:10;13.70;;;7.87;;
19985;SDS011;10154;52.474;10.768;2023-02-15T12:16:40;11.95;;;6.85;;
19985;SDS011;10154;52.474;10.768;2023-02-15T12:22:05;12.97;;;6.47;;
19985;SDS011;10154;52.474;10.768;2023-02-15T12:24:32;8.17;;;5.60;;
19985;SDS011;10154;52.474;10.768;2023-02-15T12:29:42;11.20;;;5.70;;
19985;SDS011;10154;52.474;10.768;2023-02-15T12:32:22;9.50;;;6.20;;
19985;SDS011;10154;52.474;10.768;2023-02-15T12:34:50;8.33;;;5.60;;
19985;SDS011;10154;52.474;10.768;2023-02-15T12:37:19;8.03;;;5.97;;
19985;SDS011;10154;52.474;10.768;2023-02-15T12:39:59;9.70;;;6.03;;
19985;SDS011;10154;52.474;10.768;2023-02-15T12:42:25;9.07;;;5.57;;
19985;SDS011;10154;52.474;10.768;2023-02-15T12:45:00;11.63;;;5.77;;
19985;SDS011;10154;52.474;10.768;2023-02-15T12:47:27;8.63;;;5.50;;
19985;SDS011;10154;52.474;10.768;2023-02-15T12:52:47;9.60;;;5.63;;
19985;SDS011;10154;52.474;10.768;2023-02-15T12:55:20;9.70;;;5.80;;
19985;SDS011;10154;52.474;10.768;2023-02-15T12:58:36;11.40;;;5.30;;
19985;SDS011;10154;52.474;10.768;2023-02-15T13:00:48;9.87;;;5.43;;
19985;SDS011;10154;52.474;10.768;2023-02-15T13:03:21;10.53;;;5.90;;
19985;SDS011;10154;52.474;10.768;2023-02-15T13:05:51;8.83;;;5.70;;
19985;SDS011;10154;52.474;10.768;2023-02-15T13:08:20;12.07;;;6.57;;
19985;SDS011;10154;52.474;10.768;2023-02-15T13:11:07;10.83;;;5.80;;
19985;SDS011;10154;52.474;10.768;2023-02-15T13:13:50;9.03;;;6.37;;
19985;SDS011;10154;52.474;10.768;2023-02-15T13:16:17;12.87;;;6.17;;
19985;SDS011;10154;52.474;10.768;2023-02-15T13:18:45;11.67;;;5.77;;
19985;SDS011;10154;52.474;10.768;2023-02-15T13:21:13;12.07;;;6.17;;
19985;SDS011;10154;52.474;10.768;2023-02-15T13:23:42;8.97;;;5.80;;
19985;SDS011;10154;52.474;10.768;2023-02-15T13:26:11;12.20;;;6.70;;
19985;SDS011;10154;52.474;10.768;2023-02-15T13:28:44;10.73;;;6.20;;
19985;SDS011;10154;52.474;10.768;2023-02-15T13:31:13;11.13;;;6.40;;
19985;SDS011;10154;52.474;10.768;2023-02-15T13:33:42;11.60;;;6.13;;
19985;SDS011;10154;52.474;10.768;2023-02-15T13:39:19;10.77;;;6.20;;
19985;SDS011;10154;52.474;10.768;2023-02-15T13:44:51;11.50;;;6.43;;
19985;SDS011;10154;52.474;10.768;2023-02-15T13:55:34;11.17;;;6.47;;
19985;SDS011;10154;52.474;10.768;2023-02-15T14:03:17;10.83;;;6.27;;
19985;SDS011;10154;52.474;10.768;2023-02-15T14:09:04;13.43;;;6.80;;
19985;SDS011;10154;52.474;10.768;2023-02-15T14:22:50;11.87;;;6.20;;
19985;SDS011;10154;52.474;10.768;2023-02-15T14:31:11;13.17;;;6.67;;
19985;SDS011;10154;52.474;10.768;2023-02-15T14:33:39;13.03;;;6.50;;
19985;SDS011;10154;52.474;10.768;2023-02-15T14:36:06;11.87;;;6.40;;
19985;SDS011;10154;52.474;10.768;2023-02-15T14:41:57;14.33;;;7.77;;
19985;SDS011;10154;52.474;10.768;2023-02-15T14:49:43;14.53;;;7.20;;
19985;SDS011;10154;52.474;10.768;2023-02-15T14:52:09;16.63;;;7.93;;
19985;SDS011;10154;52.474;10.768;2023-02-15T14:59:27;18.63;;;8.40;;
19985;SDS011;10154;52.474;10.768;2023-02-15T15:04:34;14.93;;;7.53;;
19985;SDS011;10154;52.474;10.768;2023-02-15T15:09:37;15.53;;;8.20;;
19985;SDS011;10154;52.474;10.768;2023-02-15T15:14:49;14.50;;;7.53;;
19985;SDS011;10154;52.474;10.768;2023-02-15T15:22:42;15.40;;;8.33;;
19985;SDS011;10154;52.474;10.768;2023-02-15T15:27:55;17.53;;;9.20;;
19985;SDS011;10154;52.474;10.768;2023-02-15T15:35:36;17.47;;;8.47;;
19985;SDS011;10154;52.474;10.768;2023-02-15T15:49:31;18.47;;;8.70;;
19985;SDS011;10154;52.474;10.768;2023-02-15T15:52:01;16.93;;;8.30;;
19985;SDS011;10154;52.474;10.768;2023-02-15T15:54:27;16.57;;;8.80;;
19985;SDS011;10154;52.474;10.768;2023-02-15T15:56:53;20.47;;;8.20;;
19985;SDS011;10154;52.474;10.768;2023-02-15T15:59:22;18.00;;;8.10;;
19985;SDS011;10154;52.474;10.768;2023-02-15T16:01:52;16.77;;;8.03;;
19985;SDS011;10154;52.474;10.768;2023-02-15T16:04:25;19.10;;;8.53;;
19985;SDS011;10154;52.474;10.768;2023-02-15T16:06:52;16.90;;;8.53;;
19985;SDS011;10154;52.474;10.768;2023-02-15T16:09:22;16.17;;;8.03;;
19985;SDS011;10154;52.474;10.768;2023-02-15T16:11:50;16.53;;;8.13;;
19985;SDS011;10154;52.474;10.768;2023-02-15T16:16:56;16.33;;;8.47;;
19985;SDS011;10154;52.474;10.768;2023-02-15T16:19:24;18.63;;;8.73;;
19985;SDS011;10154;52.474;10.768;2023-02-15T16:21:52;16.40;;;8.17;;
19985;SDS011;10154;52.474;10.768;2023-02-15T16:29:39;18.20;;;7.83;;
19985;SDS011;10154;52.474;10.768;2023-02-15T16:32:05;16.13;;;8.23;;
19985;SDS011;10154;52.474;10.768;2023-02-15T16:37:42;15.20;;;7.87;;
19985;SDS011;10154;52.474;10.768;2023-02-15T16:42:52;14.40;;;7.83;;
19985;SDS011;10154;52.474;10.768;2023-02-15T16:45:20;23.13;;;8.43;;
19985;SDS011;10154;52.474;10.768;2023-02-15T16:47:48;22.20;;;8.90;;
19985;SDS011;10154;52.474;10.768;2023-02-15T16:50:19;16.20;;;8.83;;
19985;SDS011;10154;52.474;10.768;2023-02-15T16:52:46;17.67;;;8.97;;
19985;SDS011;10154;52.474;10.768;2023-02-15T16:55:22;22.20;;;9.47;;
19985;SDS011;10154;52.474;10.768;2023-02-15T16:57:54;31.90;;;13.77;;
19985;SDS011;10154;52.474;10.768;2023-02-15T17:00:22;24.13;;;10.50;;
19985;SDS011;10154;52.474;10.768;2023-02-15T17:02:53;24.17;;;11.00;;
19985;SDS011;10154;52.474;10.768;2023-02-15T17:05:19;21.33;;;10.13;;
19985;SDS011;10154;52.474;10.768;2023-02-15T17:16:31;26.47;;;12.43;;
19985;SDS011;10154;52.474;10.768;2023-02-15T17:18:59;27.17;;;12.50;;
19985;SDS011;10154;52.474;10.768;2023-02-15T17:21:34;25.20;;;11.43;;
19985;SDS011;10154;52.474;10.768;2023-02-15T17:24:03;22.17;;;10.87;;
19985;SDS011;10154;52.474;10.768;2023-02-15T17:26:35;22.03;;;11.00;;
19985;SDS011;10154;52.474;10.768;2023-02-15T17:29:09;24.57;;;11.53;;
19985;SDS011;10154;52.474;10.768;2023-02-15T17:31:51;21.70;;;11.47;;
19985;SDS011;10154;52.474;10.768;2023-02-15T17:39:55;26.27;;;14.83;;
19985;SDS011;10154;52.474;10.768;2023-02-15T17:42:21;28.87;;;15.67;;
19985;SDS011;10154;52.474;10.768;2023-02-15T17:44:47;27.20;;;14.53;;
19985;SDS011;10154;52.474;10.768;2023-02-15T17:47:14;24.20;;;12.60;;
19985;SDS011;10154;52.474;10.768;2023-02-15T17:49:41;26.10;;;12.57;;
19985;SDS011;10154;52.474;10.768;2023-02-15T17:52:10;25.13;;;12.43;;
19985;SDS011;10154;52.474;10.768;2023-02-15T17:54:39;26.33;;;13.13;;
19985;SDS011;10154;52.474;10.768;2023-02-15T17:57:23;26.27;;;13.27;;
19985;SDS011;10154;52.474;10.768;2023-02-15T17:59:50;23.80;;;11.40;;
19985;SDS011;10154;52.474;10.768;2023-02-15T18:02:34;25.33;;;11.57;;
19985;SDS011;10154;52.474;10.768;2023-02-15T18:05:18;21.97;;;11.53;;
19985;SDS011;10154;52.474;10.768;2023-02-15T18:08:03;22.67;;;10.17;;
19985;SDS011;10154;52.474;10.768;2023-02-15T18:10:47;18.93;;;9.83;;
19985;SDS011;10154;52.474;10.768;2023-02-15T18:13:31;20.57;;;9.97;;
19985;SDS011;10154;52.474;10.768;2023-02-15T18:15:56;23.20;;;10.67;;